createdAt,value
2017-04-20T00:00:29.210Z,1037.67
2017-04-20T00:01:38.108Z,1037.67
2017-04-20T00:02:47.017Z,1037.64
2017-04-20T00:03:55.900Z,1037.66
2017-04-20T00:05:04.776Z,1037.65
2017-04-20T00:06:13.678Z,1037.63
2017-04-20T00:07:22.882Z,1037.66
2017-04-20T00:08:31.775Z,1037.69
2017-04-20T00:09:41.309Z,1037.71
2017-04-20T00:10:50.199Z,1037.71
2017-04-20T00:11:59.179Z,1037.74
2017-04-20T00:13:08.058Z,1037.71
2017-04-20T00:14:17.591Z,1037.71
2017-04-20T00:15:27.458Z,1037.67
2017-04-20T00:16:36.665Z,1037.67
2017-04-20T00:17:46.252Z,1037.69
2017-04-20T00:18:55.460Z,1037.66
2017-04-20T00:20:04.838Z,1037.65
2017-04-20T00:21:13.723Z,1037.6
2017-04-20T00:22:22.760Z,1037.62
2017-04-20T00:23:31.793Z,1037.6
2017-04-20T00:24:41.793Z,1037.59
2017-04-20T00:25:51.067Z,1037.6
2017-04-20T00:27:00.270Z,1037.64
2017-04-20T00:28:09.154Z,1037.62
2017-04-20T00:29:18.511Z,1037.59
2017-04-20T00:30:27.717Z,1037.56
2017-04-20T00:31:36.933Z,1037.59
2017-04-20T00:32:46.135Z,1037.55
2017-04-20T00:33:55.671Z,1037.55
2017-04-20T00:35:04.607Z,1037.57
2017-04-20T00:36:13.812Z,1037.54
2017-04-20T00:37:23.021Z,1037.57
2017-04-20T00:38:32.229Z,1037.53
2017-04-20T00:39:41.131Z,1037.55
2017-04-20T00:40:50.312Z,1037.52
2017-04-20T00:41:59.187Z,1037.54
2017-04-20T00:43:08.093Z,1037.51
2017-04-20T00:44:17.299Z,1037.52
2017-04-20T00:45:26.185Z,1037.56
2017-04-20T00:46:35.117Z,1037.53
2017-04-20T00:47:44.647Z,1037.55
2017-04-20T00:48:53.859Z,1037.53
2017-04-20T00:50:03.117Z,1037.47
2017-04-20T00:51:12.002Z,1037.53
2017-04-20T00:52:21.033Z,1037.54
2017-04-20T00:53:30.565Z,1037.52
2017-04-20T00:54:40.095Z,1037.53
2017-04-20T00:55:49.298Z,1037.57
2017-04-20T00:56:58.180Z,1037.57
2017-04-20T00:58:07.215Z,1037.61
2017-04-20T00:59:16.090Z,1037.58
2017-04-20T01:00:24.967Z,1037.56
2017-04-20T01:01:33.857Z,1037.54
2017-04-20T01:02:42.745Z,1037.52
2017-04-20T01:03:51.726Z,1037.45
2017-04-20T01:05:01.257Z,1037.44
2017-04-20T01:06:10.604Z,1037.38
2017-04-20T01:07:19.964Z,1037.38
2017-04-20T01:08:29.125Z,1037.33
2017-04-20T01:09:38.152Z,1037.28
2017-04-20T01:10:47.502Z,1037.36
2017-04-20T01:11:56.381Z,1037.35
2017-04-20T01:13:05.365Z,1037.35
2017-04-20T01:14:14.246Z,1037.34
2017-04-20T01:15:23.551Z,1037.34
2017-04-20T01:16:32.757Z,1037.33
2017-04-20T01:17:41.641Z,1037.33
2017-04-20T01:18:50.521Z,1037.31
2017-04-20T01:19:59.397Z,1037.27
2017-04-20T01:21:08.753Z,1037.29
2017-04-20T01:22:17.630Z,1037.32
2017-04-20T01:23:26.839Z,1037.31
2017-04-20T01:24:36.041Z,1037.28
2017-04-20T01:25:45.244Z,1037.31
2017-04-20T01:26:54.330Z,1037.3
2017-04-20T01:28:03.538Z,1037.26
2017-04-20T01:29:13.076Z,1037.26
2017-04-20T01:30:21.979Z,1037.28
2017-04-20T01:31:30.878Z,1037.26
2017-04-20T01:32:40.007Z,1037.24
2017-04-20T01:33:48.909Z,1037.25
2017-04-20T01:34:57.796Z,1037.2
2017-04-20T01:36:07.012Z,1037.21
2017-04-20T01:37:15.892Z,1037.15
2017-04-20T01:38:24.768Z,1037.16
2017-04-20T01:39:33.646Z,1037.17
2017-04-20T01:40:42.526Z,1037.17
2017-04-20T01:41:52.060Z,1037.24
2017-04-20T01:43:00.946Z,1037.16
2017-04-20T01:44:09.946Z,1037.23
2017-04-20T01:45:19.151Z,1037.19
2017-04-20T01:46:28.358Z,1037.18
2017-04-20T01:47:37.241Z,1037.21
2017-04-20T01:48:46.461Z,1037.19
2017-04-20T01:49:56.152Z,1037.2
2017-04-20T01:51:05.037Z,1037.22
2017-04-20T01:52:14.242Z,1037.25
2017-04-20T01:53:23.446Z,1037.24
2017-04-20T01:54:32.648Z,1037.22
2017-04-20T01:55:41.786Z,1037.24
2017-04-20T01:56:51.348Z,1037.26
2017-04-20T01:58:00.558Z,1037.27
2017-04-20T01:59:10.652Z,1037.31
2017-04-20T02:00:20.193Z,1037.34
2017-04-20T02:01:29.681Z,1037.34
2017-04-20T02:02:38.890Z,1037.28
2017-04-20T02:03:48.097Z,1037.31
2017-04-20T02:04:57.637Z,1037.3
2017-04-20T02:06:07.495Z,1037.3
2017-04-20T02:07:16.852Z,1037.31
2017-04-20T02:08:26.080Z,1037.28
2017-04-20T02:09:35.939Z,1037.27
2017-04-20T02:10:44.819Z,1037.24
2017-04-20T02:11:53.699Z,1037.27
2017-04-20T02:13:02.731Z,1037.27
2017-04-20T02:14:11.938Z,1037.3
2017-04-20T02:15:21.484Z,1037.25
2017-04-20T02:16:30.690Z,1037.27
2017-04-20T02:17:39.572Z,1037.28
2017-04-20T02:18:49.578Z,1037.31
2017-04-20T02:19:58.466Z,1037.33
2017-04-20T02:21:07.352Z,1037.32
2017-04-20T02:22:16.233Z,1037.32
2017-04-20T02:23:25.434Z,1037.28
2017-04-20T02:24:34.361Z,1037.3
2017-04-20T02:25:43.570Z,1037.29
2017-04-20T02:26:52.772Z,1037.26
2017-04-20T02:28:02.304Z,1037.21
2017-04-20T02:29:12.155Z,1037.29
2017-04-20T02:30:21.835Z,1037.28
2017-04-20T02:31:31.041Z,1037.26
2017-04-20T02:32:39.924Z,1037.22
2017-04-20T02:33:49.135Z,1037.23
2017-04-20T02:34:58.667Z,1037.21
2017-04-20T02:36:07.857Z,1037.19
2017-04-20T02:37:16.744Z,1037.18
2017-04-20T02:38:25.625Z,1037.18
2017-04-20T02:39:34.834Z,1037.17
2017-04-20T02:40:44.043Z,1037.16
2017-04-20T02:41:53.074Z,1037.17
2017-04-20T02:43:01.976Z,1037.2
2017-04-20T02:44:11.183Z,1037.22
2017-04-20T02:45:20.713Z,1037.28
2017-04-20T02:46:30.055Z,1037.29
2017-04-20T02:47:39.312Z,1037.31
2017-04-20T02:48:48.521Z,1037.26
2017-04-20T02:49:58.121Z,1037.26
2017-04-20T02:51:06.999Z,1037.27
2017-04-20T02:52:16.207Z,1037.25
2017-04-20T02:53:26.144Z,1037.24
2017-04-20T02:54:35.025Z,1037.26
2017-04-20T02:55:44.230Z,1037.24
2017-04-20T02:56:53.762Z,1037.26
2017-04-20T02:58:02.641Z,1037.24
2017-04-20T02:59:11.999Z,1037.22
2017-04-20T03:00:22.190Z,1037.26
2017-04-20T03:01:32.047Z,1037.25
2017-04-20T03:02:41.260Z,1037.26
2017-04-20T03:03:50.470Z,1037.25
2017-04-20T03:04:59.678Z,1037.32
2017-04-20T03:06:08.560Z,1037.29
2017-04-20T03:07:17.767Z,1037.33
2017-04-20T03:08:26.654Z,1037.34
2017-04-20T03:09:36.186Z,1037.35
2017-04-20T03:10:45.369Z,1037.31
2017-04-20T03:11:54.573Z,1037.3
2017-04-20T03:13:03.464Z,1037.31
2017-04-20T03:14:13.004Z,1037.31
2017-04-20T03:15:22.552Z,1037.31
2017-04-20T03:16:31.922Z,1037.32
2017-04-20T03:17:41.455Z,1037.32
2017-04-20T03:18:50.662Z,1037.31
2017-04-20T03:19:59.546Z,1037.3
2017-04-20T03:21:08.430Z,1037.28
2017-04-20T03:22:17.458Z,1037.29
2017-04-20T03:23:26.338Z,1037.3
2017-04-20T03:24:35.219Z,1037.28
2017-04-20T03:25:44.101Z,1037.29
2017-04-20T03:26:53.307Z,1037.31
2017-04-20T03:28:02.661Z,1037.3
2017-04-20T03:29:11.869Z,1037.26
2017-04-20T03:30:21.408Z,1037.31
2017-04-20T03:31:30.614Z,1037.29
2017-04-20T03:32:39.503Z,1037.28
2017-04-20T03:33:49.086Z,1037.3
2017-04-20T03:34:57.983Z,1037.31
2017-04-20T03:36:07.204Z,1037.31
2017-04-20T03:37:16.739Z,1037.31
2017-04-20T03:38:25.944Z,1037.28
2017-04-20T03:39:35.624Z,1037.25
2017-04-20T03:40:44.831Z,1037.31
2017-04-20T03:41:54.039Z,1037.3
2017-04-20T03:43:03.359Z,1037.28
2017-04-20T03:44:12.898Z,1037.3
2017-04-20T03:45:22.620Z,1037.27
2017-04-20T03:46:32.478Z,1037.24
2017-04-20T03:47:41.480Z,1037.27
2017-04-20T03:48:50.493Z,1037.19
2017-04-20T03:49:59.905Z,1037.23
2017-04-20T03:51:09.363Z,1037.25
2017-04-20T03:52:18.892Z,1037.25
2017-04-20T03:53:28.100Z,1037.22
2017-04-20T03:54:37.303Z,1037.19
2017-04-20T03:55:46.511Z,1037.24
2017-04-20T03:56:55.815Z,1037.24
2017-04-20T03:58:04.698Z,1037.27
2017-04-20T03:59:14.882Z,1037.29
2017-04-20T04:00:24.106Z,1037.3
2017-04-20T04:01:33.646Z,1037.29
2017-04-20T04:02:42.852Z,1037.25
2017-04-20T04:03:52.389Z,1037.25
2017-04-20T04:05:01.600Z,1037.28
2017-04-20T04:06:10.484Z,1037.29
2017-04-20T04:07:19.692Z,1037.25
2017-04-20T04:08:29.052Z,1037.28
2017-04-20T04:09:38.592Z,1037.28
2017-04-20T04:10:47.805Z,1037.27
2017-04-20T04:11:56.691Z,1037.26
2017-04-20T04:13:05.902Z,1037.28
2017-04-20T04:14:14.790Z,1037.29
2017-04-20T04:15:24.001Z,1037.29
2017-04-20T04:16:33.205Z,1037.29
2017-04-20T04:17:42.086Z,1037.29
2017-04-20T04:18:50.966Z,1037.31
2017-04-20T04:20:00.600Z,1037.28
2017-04-20T04:21:10.136Z,1037.27
2017-04-20T04:22:19.024Z,1037.28
2017-04-20T04:23:27.912Z,1037.32
2017-04-20T04:24:37.441Z,1037.3
2017-04-20T04:25:46.472Z,1037.26
2017-04-20T04:26:56.005Z,1037.29
2017-04-20T04:28:05.212Z,1037.28
2017-04-20T04:29:14.095Z,1037.32
2017-04-20T04:30:23.303Z,1037.32
2017-04-20T04:31:32.990Z,1037.33
2017-04-20T04:32:41.873Z,1037.35
2017-04-20T04:33:51.081Z,1037.34
2017-04-20T04:34:59.960Z,1037.34
2017-04-20T04:36:09.176Z,1037.34
2017-04-20T04:37:18.205Z,1037.3
2017-04-20T04:38:27.089Z,1037.3
2017-04-20T04:39:36.294Z,1037.31
2017-04-20T04:40:45.503Z,1037.27
2017-04-20T04:41:54.715Z,1037.29
2017-04-20T04:43:03.865Z,1037.3
2017-04-20T04:44:12.742Z,1037.27
2017-04-20T04:45:21.948Z,1037.29
2017-04-20T04:46:31.170Z,1037.27
2017-04-20T04:47:40.133Z,1037.3
2017-04-20T04:48:49.390Z,1037.27
2017-04-20T04:49:58.595Z,1037.28
2017-04-20T04:51:07.801Z,1037.29
2017-04-20T04:52:16.807Z,1037.31
2017-04-20T04:53:25.692Z,1037.26
2017-04-20T04:54:35.065Z,1037.24
2017-04-20T04:55:43.943Z,1037.34
2017-04-20T04:56:52.823Z,1037.31
2017-04-20T04:58:02.030Z,1037.33
2017-04-20T04:59:11.246Z,1037.31
2017-04-20T05:00:20.602Z,1037.35
2017-04-20T05:01:29.810Z,1037.33
2017-04-20T05:02:38.693Z,1037.3
2017-04-20T05:03:47.574Z,1037.32
2017-04-20T05:04:57.435Z,1037.3
2017-04-20T05:06:07.119Z,1037.32
2017-04-20T05:07:16.001Z,1037.27
2017-04-20T05:08:25.207Z,1037.24
2017-04-20T05:09:34.111Z,1037.27
2017-04-20T05:10:43.319Z,1037.27
2017-04-20T05:11:52.926Z,1037.28
2017-04-20T05:13:02.132Z,1037.29
2017-04-20T05:14:11.011Z,1037.32
2017-04-20T05:15:20.217Z,1037.31
2017-04-20T05:16:29.106Z,1037.26
2017-04-20T05:17:38.318Z,1037.3
2017-04-20T05:18:47.530Z,1037.25
2017-04-20T05:19:56.414Z,1037.28
2017-04-20T05:21:05.623Z,1037.26
2017-04-20T05:22:14.508Z,1037.28
2017-04-20T05:23:24.201Z,1037.26
2017-04-20T05:24:33.417Z,1037.21
2017-04-20T05:25:42.625Z,1037.24
2017-04-20T05:26:51.513Z,1037.23
2017-04-20T05:28:00.727Z,1037.26
2017-04-20T05:29:10.036Z,1037.24
2017-04-20T05:30:18.916Z,1037.21
2017-04-20T05:31:27.803Z,1037.22
2017-04-20T05:32:37.013Z,1037.22
2017-04-20T05:33:45.891Z,1037.2
2017-04-20T05:34:55.176Z,1037.17
2017-04-20T05:36:04.385Z,1037.17
2017-04-20T05:37:13.271Z,1037.21
2017-04-20T05:38:22.164Z,1037.21
2017-04-20T05:39:31.380Z,1037.2
2017-04-20T05:40:40.668Z,1037.28
2017-04-20T05:41:49.878Z,1037.25
2017-04-20T05:42:59.408Z,1037.22
2017-04-20T05:44:08.294Z,1037.24
2017-04-20T05:45:17.184Z,1037.25
2017-04-20T05:46:26.642Z,1037.22
2017-04-20T05:47:35.524Z,1037.24
2017-04-20T05:48:44.748Z,1037.24
2017-04-20T05:49:53.957Z,1037.17
2017-04-20T05:51:02.844Z,1037.23
2017-04-20T05:52:11.953Z,1037.21
2017-04-20T05:53:20.971Z,1037.23
2017-04-20T05:54:29.991Z,1037.2
2017-04-20T05:55:38.995Z,1037.2
2017-04-20T05:56:47.892Z,1037.26
2017-04-20T05:57:57.522Z,1037.25
2017-04-20T05:59:07.135Z,1037.27
2017-04-20T06:00:16.588Z,1037.26
2017-04-20T06:01:25.556Z,1037.28
2017-04-20T06:02:34.441Z,1037.2
2017-04-20T06:03:43.696Z,1037.23
2017-04-20T06:04:53.554Z,1037.25
2017-04-20T06:06:03.086Z,1037.3
2017-04-20T06:07:11.969Z,1037.25
2017-04-20T06:08:21.177Z,1037.29
2017-04-20T06:09:30.212Z,1037.3
2017-04-20T06:10:39.096Z,1037.33
2017-04-20T06:11:47.983Z,1037.31
2017-04-20T06:12:56.869Z,1037.31
2017-04-20T06:14:05.761Z,1037.33
2017-04-20T06:15:15.119Z,1037.32
2017-04-20T06:16:24.004Z,1037.33
2017-04-20T06:17:32.891Z,1037.39
2017-04-20T06:18:41.779Z,1037.35
2017-04-20T06:19:50.992Z,1037.32
2017-04-20T06:21:00.351Z,1037.35
2017-04-20T06:22:09.233Z,1037.34
2017-04-20T06:23:18.116Z,1037.35
2017-04-20T06:24:27.333Z,1037.35
2017-04-20T06:25:36.541Z,1037.33
2017-04-20T06:26:45.798Z,1037.31
2017-04-20T06:27:54.683Z,1037.36
2017-04-20T06:29:03.889Z,1037.3
2017-04-20T06:30:12.780Z,1037.33
2017-04-20T06:31:21.665Z,1037.36
2017-04-20T06:32:31.347Z,1037.38
2017-04-20T06:33:40.552Z,1037.37
2017-04-20T06:34:49.434Z,1037.39
2017-04-20T06:35:58.318Z,1037.4
2017-04-20T06:37:07.532Z,1037.39
2017-04-20T06:38:16.669Z,1037.37
2017-04-20T06:39:25.876Z,1037.39
2017-04-20T06:40:34.764Z,1037.33
2017-04-20T06:41:43.651Z,1037.34
2017-04-20T06:42:52.535Z,1037.35
2017-04-20T06:44:01.476Z,1037.33
2017-04-20T06:45:10.686Z,1037.32
2017-04-20T06:46:19.898Z,1037.31
2017-04-20T06:47:28.784Z,1037.31
2017-04-20T06:48:37.668Z,1037.33
2017-04-20T06:49:46.931Z,1037.26
2017-04-20T06:50:55.815Z,1037.25
2017-04-20T06:52:05.039Z,1037.25
2017-04-20T06:53:14.249Z,1037.26
2017-04-20T06:54:23.133Z,1037.25
2017-04-20T06:55:32.720Z,1037.2
2017-04-20T06:56:41.619Z,1037.21
2017-04-20T06:57:50.503Z,1037.22
2017-04-20T06:58:59.387Z,1037.27
2017-04-20T07:00:08.275Z,1037.26
2017-04-20T07:01:17.261Z,1037.28
2017-04-20T07:02:26.144Z,1037.23
2017-04-20T07:03:35.037Z,1037.28
2017-04-20T07:04:43.938Z,1037.27
2017-04-20T07:05:52.827Z,1037.29
2017-04-20T07:07:02.236Z,1037.27
2017-04-20T07:08:11.773Z,1037.29
2017-04-20T07:09:20.984Z,1037.34
2017-04-20T07:10:30.519Z,1037.3
2017-04-20T07:11:39.430Z,1037.31
2017-04-20T07:12:48.461Z,1037.33
2017-04-20T07:13:57.672Z,1037.31
2017-04-20T07:15:06.557Z,1037.29
2017-04-20T07:16:15.766Z,1037.28
2017-04-20T07:17:24.655Z,1037.31
2017-04-20T07:18:33.647Z,1037.29
2017-04-20T07:19:42.539Z,1037.27
2017-04-20T07:20:51.751Z,1037.27
2017-04-20T07:22:01.171Z,1037.31
2017-04-20T07:23:10.705Z,1037.3
2017-04-20T07:24:20.053Z,1037.26
2017-04-20T07:25:29.070Z,1037.24
2017-04-20T07:26:37.968Z,1037.3
2017-04-20T07:27:47.587Z,1037.25
2017-04-20T07:28:56.627Z,1037.23
2017-04-20T07:30:05.990Z,1037.21
2017-04-20T07:31:15.211Z,1037.23
2017-04-20T07:32:24.907Z,1037.22
2017-04-20T07:33:33.795Z,1037.18
2017-04-20T07:34:42.827Z,1037.22
2017-04-20T07:35:51.885Z,1037.25
2017-04-20T07:37:00.769Z,1037.24
2017-04-20T07:38:09.655Z,1037.22
2017-04-20T07:39:18.542Z,1037.21
2017-04-20T07:40:28.080Z,1037.2
2017-04-20T07:41:37.266Z,1037.2
2017-04-20T07:42:46.152Z,1037.21
2017-04-20T07:43:55.040Z,1037.16
2017-04-20T07:45:04.250Z,1037.15
2017-04-20T07:46:13.785Z,1037.13
2017-04-20T07:47:23.156Z,1037.15
2017-04-20T07:48:32.466Z,1037.11
2017-04-20T07:49:41.355Z,1037.13
2017-04-20T07:50:50.240Z,1037.12
2017-04-20T07:51:59.130Z,1037.08
2017-04-20T07:53:08.063Z,1037.13
2017-04-20T07:54:16.957Z,1037.09
2017-04-20T07:55:26.166Z,1037.08
2017-04-20T07:56:35.057Z,1037.08
2017-04-20T07:57:43.940Z,1037.11
2017-04-20T07:58:53.232Z,1037.07
2017-04-20T08:00:02.446Z,1037.07
2017-04-20T08:01:11.660Z,1037.1
2017-04-20T08:02:20.558Z,1037.06
2017-04-20T08:03:29.771Z,1037.07
2017-04-20T08:04:38.761Z,1037.07
2017-04-20T08:05:47.658Z,1037.1
2017-04-20T08:06:56.871Z,1037.1
2017-04-20T08:08:05.761Z,1037.1
2017-04-20T08:09:15.631Z,1037.08
2017-04-20T08:10:25.045Z,1037.03
2017-04-20T08:11:33.963Z,1037.08
2017-04-20T08:12:42.853Z,1037.01
2017-04-20T08:13:52.066Z,1036.95
2017-04-20T08:15:00.979Z,1037.01
2017-04-20T08:16:10.933Z,1036.97
2017-04-20T08:17:19.883Z,1036.98
2017-04-20T08:18:29.475Z,1036.9
2017-04-20T08:19:39.737Z,1036.96
2017-04-20T08:20:48.714Z,1036.94
2017-04-20T08:21:59.229Z,1036.93
2017-04-20T08:23:08.832Z,1036.98
2017-04-20T08:24:17.767Z,1036.94
2017-04-20T08:25:26.655Z,1036.97
2017-04-20T08:26:35.544Z,1036.94
2017-04-20T08:27:44.957Z,1036.96
2017-04-20T08:28:53.854Z,1036.97
2017-04-20T08:30:02.741Z,1036.99
2017-04-20T08:31:12.282Z,1036.96
2017-04-20T08:32:21.556Z,1037.01
2017-04-20T08:33:30.656Z,1036.99
2017-04-20T08:34:40.192Z,1037.08
2017-04-20T08:35:49.087Z,1037.08
2017-04-20T08:36:58.089Z,1037.1
2017-04-20T08:38:07.035Z,1037.03
2017-04-20T08:39:16.459Z,1037.05
2017-04-20T08:40:25.485Z,1037.1
2017-04-20T08:41:34.470Z,1037.11
2017-04-20T08:42:43.589Z,1037.12
2017-04-20T08:43:52.696Z,1037.11
2017-04-20T08:45:01.790Z,1037.06
2017-04-20T08:46:10.688Z,1037.08
2017-04-20T08:47:19.905Z,1037.06
2017-04-20T08:48:29.635Z,1037.05
2017-04-20T08:49:38.848Z,1037
2017-04-20T08:50:48.262Z,1036.96
2017-04-20T08:51:57.477Z,1037.01
2017-04-20T08:53:06.694Z,1036.98
2017-04-20T08:54:15.909Z,1036.98
2017-04-20T08:55:25.120Z,1036.97
2017-04-20T08:56:34.166Z,1036.95
2017-04-20T08:57:43.379Z,1036.96
2017-04-20T08:58:52.916Z,1036.91
2017-04-20T09:00:01.806Z,1036.91
2017-04-20T09:01:10.698Z,1036.92
2017-04-20T09:02:19.742Z,1036.98
2017-04-20T09:03:28.632Z,1036.94
2017-04-20T09:04:37.523Z,1036.95
2017-04-20T09:05:46.414Z,1036.96
2017-04-20T09:06:55.309Z,1036.97
2017-04-20T09:08:04.550Z,1036.94
2017-04-20T09:09:13.776Z,1036.92
2017-04-20T09:10:22.992Z,1036.88
2017-04-20T09:11:31.884Z,1036.99
2017-04-20T09:12:40.779Z,1037.03
2017-04-20T09:13:50.048Z,1037.01
2017-04-20T09:14:58.940Z,1036.99
2017-04-20T09:16:07.830Z,1036.94
2017-04-20T09:17:16.718Z,1036.94
2017-04-20T09:18:25.932Z,1036.91
2017-04-20T09:19:35.310Z,1036.97
2017-04-20T09:20:44.198Z,1036.94
2017-04-20T09:21:53.413Z,1036.93
2017-04-20T09:23:02.301Z,1036.93
2017-04-20T09:24:11.836Z,1036.87
2017-04-20T09:25:20.830Z,1036.89
2017-04-20T09:26:29.718Z,1036.84
2017-04-20T09:27:38.607Z,1036.83
2017-04-20T09:28:47.498Z,1036.82
2017-04-20T09:29:56.384Z,1036.86
2017-04-20T09:31:05.649Z,1036.8
2017-04-20T09:32:14.536Z,1036.76
2017-04-20T09:33:23.425Z,1036.78
2017-04-20T09:34:32.638Z,1036.79
2017-04-20T09:35:41.854Z,1036.77
2017-04-20T09:36:50.895Z,1036.81
2017-04-20T09:38:00.111Z,1036.78
2017-04-20T09:39:09.331Z,1036.81
2017-04-20T09:40:18.556Z,1036.77
2017-04-20T09:41:27.445Z,1036.79
2017-04-20T09:42:36.536Z,1036.76
2017-04-20T09:43:45.501Z,1036.76
2017-04-20T09:44:54.389Z,1036.74
2017-04-20T09:46:03.283Z,1036.79
2017-04-20T09:47:12.835Z,1036.7
2017-04-20T09:48:21.875Z,1036.77
2017-04-20T09:49:31.410Z,1036.73
2017-04-20T09:50:40.294Z,1036.78
2017-04-20T09:51:49.191Z,1036.74
2017-04-20T09:52:58.083Z,1036.76
2017-04-20T09:54:07.686Z,1036.72
2017-04-20T09:55:17.024Z,1036.63
2017-04-20T09:56:25.912Z,1036.68
2017-04-20T09:57:34.799Z,1036.68
2017-04-20T09:58:43.684Z,1036.66
2017-04-20T09:59:53.056Z,1036.63
2017-04-20T10:01:02.076Z,1036.67
2017-04-20T10:02:11.078Z,1036.67
2017-04-20T10:03:20.622Z,1036.69
2017-04-20T10:04:29.506Z,1036.74
2017-04-20T10:05:38.694Z,1036.65
2017-04-20T10:06:47.812Z,1036.63
2017-04-20T10:07:57.130Z,1036.61
2017-04-20T10:09:06.444Z,1036.62
2017-04-20T10:10:15.775Z,1036.64
2017-04-20T10:11:25.363Z,1036.67
2017-04-20T10:12:34.581Z,1036.65
2017-04-20T10:13:43.477Z,1036.68
2017-04-20T10:14:52.364Z,1036.66
2017-04-20T10:16:01.579Z,1036.62
2017-04-20T10:17:10.789Z,1036.56
2017-04-20T10:18:19.680Z,1036.41
2017-04-20T10:19:28.567Z,1036.54
2017-04-20T10:20:37.459Z,1036.56
2017-04-20T10:21:46.672Z,1036.56
2017-04-20T10:22:55.635Z,1036.55
2017-04-20T10:24:04.525Z,1036.64
2017-04-20T10:25:13.414Z,1036.59
2017-04-20T10:26:22.302Z,1036.54
2017-04-20T10:27:31.190Z,1036.54
2017-04-20T10:28:40.179Z,1036.55
2017-04-20T10:29:49.410Z,1036.51
2017-04-20T10:30:58.304Z,1036.53
2017-04-20T10:32:07.515Z,1036.52
2017-04-20T10:33:16.736Z,1036.47
2017-04-20T10:34:26.335Z,1036.47
2017-04-20T10:35:35.224Z,1036.44
2017-04-20T10:36:44.122Z,1036.4
2017-04-20T10:37:53.006Z,1036.45
2017-04-20T10:39:02.224Z,1036.46
2017-04-20T10:40:11.365Z,1036.49
2017-04-20T10:41:20.255Z,1036.51
2017-04-20T10:42:29.471Z,1036.48
2017-04-20T10:43:38.355Z,1036.44
2017-04-20T10:44:47.253Z,1036.42
2017-04-20T10:45:56.140Z,1036.47
2017-04-20T10:47:05.353Z,1036.5
2017-04-20T10:48:14.249Z,1036.47
2017-04-20T10:49:23.137Z,1036.45
2017-04-20T10:50:32.031Z,1036.46
2017-04-20T10:51:41.074Z,1036.47
2017-04-20T10:52:49.963Z,1036.44
2017-04-20T10:53:58.863Z,1036.4
2017-04-20T10:55:07.765Z,1036.39
2017-04-20T10:56:16.980Z,1036.32
2017-04-20T10:57:26.672Z,1036.31
2017-04-20T10:58:35.563Z,1036.28
2017-04-20T10:59:44.777Z,1036.26
2017-04-20T11:00:53.668Z,1036.27
2017-04-20T11:02:02.561Z,1036.28
2017-04-20T11:03:12.350Z,1036.25
2017-04-20T11:04:21.251Z,1036.21
2017-04-20T11:05:30.463Z,1036.19
2017-04-20T11:06:39.355Z,1036.14
2017-04-20T11:07:48.243Z,1036.15
2017-04-20T11:08:57.283Z,1036.13
2017-04-20T11:10:06.172Z,1036.1
2017-04-20T11:11:15.068Z,1036.1
2017-04-20T11:12:23.957Z,1036.14
2017-04-20T11:13:32.847Z,1036.17
2017-04-20T11:14:41.941Z,1036.19
2017-04-20T11:15:51.154Z,1036.17
2017-04-20T11:17:00.374Z,1036.13
2017-04-20T11:18:09.263Z,1036.1
2017-04-20T11:19:18.149Z,1036.07
2017-04-20T11:20:27.043Z,1036.01
2017-04-20T11:21:35.940Z,1036.05
2017-04-20T11:22:44.831Z,1036.02
2017-04-20T11:23:53.743Z,1036
2017-04-20T11:25:02.978Z,1035.96
2017-04-20T11:26:12.252Z,1035.94
2017-04-20T11:27:21.200Z,1035.94
2017-04-20T11:28:30.591Z,1035.96
2017-04-20T11:29:39.693Z,1035.95
2017-04-20T11:30:48.792Z,1035.94
2017-04-20T11:31:58.348Z,1035.92
2017-04-20T11:33:07.826Z,1035.89
2017-04-20T11:34:16.717Z,1035.88
2017-04-20T11:35:26.260Z,1035.88
2017-04-20T11:36:35.474Z,1035.85
2017-04-20T11:37:44.509Z,1035.87
2017-04-20T11:38:53.403Z,1035.86
2017-04-20T11:40:02.636Z,1035.89
2017-04-20T11:41:11.532Z,1035.83
2017-04-20T11:42:20.748Z,1035.83
2017-04-20T11:43:30.124Z,1035.83
2017-04-20T11:44:39.016Z,1035.77
2017-04-20T11:45:47.909Z,1035.8
2017-04-20T11:46:56.798Z,1035.8
2017-04-20T11:48:06.341Z,1035.75
2017-04-20T11:49:15.284Z,1035.71
2017-04-20T11:50:24.505Z,1035.73
2017-04-20T11:51:33.398Z,1035.75
2017-04-20T11:52:42.612Z,1035.72
2017-04-20T11:54:23.702Z,1035.76
2017-04-20T11:55:32.919Z,1035.78
2017-04-20T11:56:41.809Z,1035.75
2017-04-20T11:57:51.021Z,1035.71
2017-04-20T11:58:59.917Z,1035.76
2017-04-20T12:00:08.966Z,1035.79
2017-04-20T12:01:17.862Z,1035.68
2017-04-20T12:02:27.079Z,1035.68
2017-04-20T12:03:35.969Z,1035.65
2017-04-20T12:04:44.862Z,1035.61
2017-04-20T12:05:53.807Z,1035.68
2017-04-20T12:07:02.699Z,1035.67
2017-04-20T12:08:11.621Z,1035.65
2017-04-20T12:09:20.862Z,1035.68
2017-04-20T12:10:29.756Z,1035.69
2017-04-20T12:11:39.149Z,1035.7
2017-04-20T12:12:48.065Z,1035.61
2017-04-20T12:13:57.077Z,1035.55
2017-04-20T12:15:05.973Z,1035.6
2017-04-20T12:16:14.869Z,1035.63
2017-04-20T12:17:24.405Z,1035.54
2017-04-20T12:18:33.637Z,1035.54
2017-04-20T12:19:42.864Z,1035.48
2017-04-20T12:20:51.826Z,1035.47
2017-04-20T12:22:00.772Z,1035.51
2017-04-20T12:23:10.337Z,1035.49
2017-04-20T12:24:19.232Z,1035.45
2017-04-20T12:25:28.470Z,1035.49
2017-04-20T12:26:37.372Z,1035.42
2017-04-20T12:27:46.606Z,1035.42
2017-04-20T12:28:55.551Z,1035.43
2017-04-20T12:30:04.448Z,1035.4
2017-04-20T12:31:13.672Z,1035.37
2017-04-20T12:32:22.899Z,1035.45
2017-04-20T12:33:31.795Z,1035.38
2017-04-20T12:34:41.167Z,1035.4
2017-04-20T12:35:50.065Z,1035.37
2017-04-20T12:36:59.292Z,1035.36
2017-04-20T12:38:08.514Z,1035.38
2017-04-20T12:39:17.740Z,1035.38
2017-04-20T12:40:26.942Z,1035.41
2017-04-20T12:41:35.839Z,1035.35
2017-04-20T12:42:44.748Z,1035.41
2017-04-20T12:43:53.650Z,1035.28
2017-04-20T12:45:03.200Z,1035.37
2017-04-20T12:46:12.152Z,1035.34
2017-04-20T12:47:21.056Z,1035.26
2017-04-20T12:48:29.954Z,1035.32
2017-04-20T12:49:39.174Z,1035.36
2017-04-20T12:50:48.086Z,1035.36
2017-04-20T12:51:57.297Z,1035.35
2017-04-20T12:53:06.525Z,1035.37
2017-04-20T12:54:15.751Z,1035.33
2017-04-20T12:55:24.656Z,1035.38
2017-04-20T12:56:33.880Z,1035.38
2017-04-20T12:57:42.882Z,1035.35
2017-04-20T12:58:51.782Z,1035.32
2017-04-20T13:00:00.681Z,1035.33
2017-04-20T13:01:09.918Z,1035.27
2017-04-20T13:02:19.142Z,1035.36
2017-04-20T13:03:28.201Z,1035.28
2017-04-20T13:04:37.100Z,1035.23
2017-04-20T13:05:46.326Z,1035.26
2017-04-20T13:06:55.238Z,1035.22
2017-04-20T13:08:04.470Z,1035.26
2017-04-20T13:09:13.846Z,1035.22
2017-04-20T13:10:22.752Z,1035.14
2017-04-20T13:11:31.667Z,1035.18
2017-04-20T13:12:40.903Z,1035.18
2017-04-20T13:13:49.803Z,1035.2
2017-04-20T13:14:59.012Z,1035.08
2017-04-20T13:16:07.923Z,1035.05
2017-04-20T13:17:17.151Z,1035
2017-04-20T13:18:26.382Z,1034.9
2017-04-20T13:19:35.941Z,1034.89
2017-04-20T13:20:45.556Z,1034.87
2017-04-20T13:21:54.491Z,1034.93
2017-04-20T13:23:03.730Z,1034.84
2017-04-20T13:24:12.644Z,1034.87
2017-04-20T13:25:21.545Z,1034.81
2017-04-20T13:26:30.937Z,1034.86
2017-04-20T13:27:39.903Z,1034.84
2017-04-20T13:28:48.817Z,1034.82
2017-04-20T13:29:57.729Z,1034.69
2017-04-20T13:31:06.955Z,1034.81
2017-04-20T13:32:15.965Z,1034.78
2017-04-20T13:33:24.874Z,1034.72
2017-04-20T13:34:33.774Z,1034.72
2017-04-20T13:35:42.679Z,1034.66
2017-04-20T13:36:51.613Z,1034.66
2017-04-20T13:38:00.563Z,1034.65
2017-04-20T13:39:09.789Z,1034.63
2017-04-20T13:40:19.340Z,1034.65
2017-04-20T13:41:28.657Z,1034.6
2017-04-20T13:42:37.883Z,1034.56
2017-04-20T13:43:47.157Z,1034.58
2017-04-20T13:44:56.215Z,1034.59
2017-04-20T13:46:05.242Z,1034.56
2017-04-20T13:47:14.470Z,1034.57
2017-04-20T13:48:23.419Z,1034.56
2017-04-20T13:49:32.743Z,1034.54
2017-04-20T13:50:41.967Z,1034.54
2017-04-20T13:51:51.228Z,1034.55
2017-04-20T13:53:00.599Z,1034.45
2017-04-20T13:54:09.658Z,1034.44
2017-04-20T13:55:18.813Z,1034.46
2017-04-20T13:56:27.714Z,1034.42
2017-04-20T13:57:36.618Z,1034.44
2017-04-20T13:58:45.537Z,1034.35
2017-04-20T13:59:54.434Z,1034.43